Connexion S'enregistrer

Connexion à votre compte

Identifiant
Mot de passe
Maintenir la connexion active sur ce site

Créer un compte

Pour valider ce formulaire, vous devez remplir tous les champs.
Nom
Identifiant
Mot de passe
Répétez le mot de passe
Adresse e-mail
Répétez l'adresse e-mail

METAR/TAF de Chambéry

[source: ADDS]
METAR
LFLB 210930Z AUTO VRB03KT 9999 SCT066 BKN090 BKN110 14/06 Q1019 NOSIG =
TAF LFLB 210500Z 2106/2206 VRB02KT CAVOK BECMG 2109/2111 02007KT BECMG 2117/2119 VRB02KT
TAF
TAF LFLB 210500Z 2106/2206 VRB02KT CAVOK BECMG 2109/2111 02007KT BECMG 2117/2119 VRB02KT =
SR / SS: 04:40 / 18:29 UTC (Lever/Coucher du soleil le 2019-04-21)

 

Webcam de l'Aéroclub - Parking Lima et SW (réactualisation : 5min)

Cliquer ici pour une animation sur les 3 dernières heures / Cliquer sur l'image pour l'agrandir dans une nouvelle fenêtre

 

Webcam de l'Aéroclub - Manche à air et WA (réactualisation : 5min)

Cliquer ici pour une animation sur les 3 dernières heures / Cliquer sur l'image pour l'agrandir dans une nouvelle fenêtre

 

JSN Boot template designed by JoomlaShine.com